sensor_id;sensor_type;location;lat;lon;timestamp;P1;durP1;ratioP1;P2;durP2;ratioP2
2646;SDS011;1333;50.958;6.770;2024-02-26T00:00:15;1.00;;;0.80;;
2646;SDS011;1333;50.958;6.770;2024-02-26T00:02:41;1.47;;;1.00;;
2646;SDS011;1333;50.958;6.770;2024-02-26T00:05:07;2.00;;;1.00;;
2646;SDS011;1333;50.958;6.770;2024-02-26T00:07:33;2.20;;;1.20;;
2646;SDS011;1333;50.958;6.770;2024-02-26T00:09:59;1.30;;;1.13;;
2646;SDS011;1333;50.958;6.770;2024-02-26T00:12:24;1.43;;;1.00;;
2646;SDS011;1333;50.958;6.770;2024-02-26T00:14:50;1.47;;;1.13;;
2646;SDS011;1333;50.958;6.770;2024-02-26T00:17:17;0.90;;;0.80;;
2646;SDS011;1333;50.958;6.770;2024-02-26T00:19:43;7.60;;;1.30;;
2646;SDS011;1333;50.958;6.770;2024-02-26T00:22:08;0.97;;;0.80;;
2646;SDS011;1333;50.958;6.770;2024-02-26T00:24:34;2.03;;;1.43;;
2646;SDS011;1333;50.958;6.770;2024-02-26T00:26:59;3.97;;;0.97;;
2646;SDS011;1333;50.958;6.770;2024-02-26T00:29:25;1.43;;;1.00;;
2646;SDS011;1333;50.958;6.770;2024-02-26T00:31:50;1.10;;;0.80;;
2646;SDS011;1333;50.958;6.770;2024-02-26T00:34:16;2.67;;;0.80;;
2646;SDS011;1333;50.958;6.770;2024-02-26T00:36:42;1.83;;;1.20;;
2646;SDS011;1333;50.958;6.770;2024-02-26T00:39:07;1.47;;;1.03;;
2646;SDS011;1333;50.958;6.770;2024-02-26T00:41:37;1.20;;;0.97;;
2646;SDS011;1333;50.958;6.770;2024-02-26T00:44:03;0.90;;;0.80;;
2646;SDS011;1333;50.958;6.770;2024-02-26T00:46:29;1.40;;;1.27;;
2646;SDS011;1333;50.958;6.770;2024-02-26T00:48:54;0.93;;;0.80;;
2646;SDS011;1333;50.958;6.770;2024-02-26T00:51:20;1.83;;;1.03;;
2646;SDS011;1333;50.958;6.770;2024-02-26T00:53:45;0.90;;;0.60;;
2646;SDS011;1333;50.958;6.770;2024-02-26T00:56:11;1.23;;;1.00;;
2646;SDS011;1333;50.958;6.770;2024-02-26T00:58:36;6.70;;;1.00;;
2646;SDS011;1333;50.958;6.770;2024-02-26T01:01:02;1.10;;;0.90;;
2646;SDS011;1333;50.958;6.770;2024-02-26T01:03:28;2.33;;;1.10;;
2646;SDS011;1333;50.958;6.770;2024-02-26T01:05:53;0.90;;;0.80;;
2646;SDS011;1333;50.958;6.770;2024-02-26T01:08:19;1.37;;;0.93;;
2646;SDS011;1333;50.958;6.770;2024-02-26T01:10:45;1.30;;;0.80;;
2646;SDS011;1333;50.958;6.770;2024-02-26T01:13:10;0.80;;;0.63;;
2646;SDS011;1333;50.958;6.770;2024-02-26T01:15:36;1.23;;;1.03;;
2646;SDS011;1333;50.958;6.770;2024-02-26T01:18:02;1.13;;;1.03;;
2646;SDS011;1333;50.958;6.770;2024-02-26T01:20:27;3.23;;;1.00;;
2646;SDS011;1333;50.958;6.770;2024-02-26T01:22:53;2.60;;;0.90;;
2646;SDS011;1333;50.958;6.770;2024-02-26T01:25:18;1.63;;;1.53;;
2646;SDS011;1333;50.958;6.770;2024-02-26T01:27:44;1.30;;;1.00;;
2646;SDS011;1333;50.958;6.770;2024-02-26T01:30:10;1.53;;;0.80;;
2646;SDS011;1333;50.958;6.770;2024-02-26T01:32:36;1.00;;;0.90;;
2646;SDS011;1333;50.958;6.770;2024-02-26T01:35:01;1.50;;;0.87;;
2646;SDS011;1333;50.958;6.770;2024-02-26T01:37:32;1.33;;;0.83;;
2646;SDS011;1333;50.958;6.770;2024-02-26T01:39:58;1.47;;;0.80;;
2646;SDS011;1333;50.958;6.770;2024-02-26T01:42:23;1.10;;;1.00;;
2646;SDS011;1333;50.958;6.770;2024-02-26T01:44:49;1.03;;;0.80;;
2646;SDS011;1333;50.958;6.770;2024-02-26T01:47:14;1.10;;;0.70;;
2646;SDS011;1333;50.958;6.770;2024-02-26T01:49:40;1.33;;;1.17;;
2646;SDS011;1333;50.958;6.770;2024-02-26T01:52:06;1.30;;;1.00;;
2646;SDS011;1333;50.958;6.770;2024-02-26T01:54:36;1.00;;;0.90;;
2646;SDS011;1333;50.958;6.770;2024-02-26T01:57:04;1.30;;;1.20;;
2646;SDS011;1333;50.958;6.770;2024-02-26T01:59:31;0.80;;;0.60;;
2646;SDS011;1333;50.958;6.770;2024-02-26T02:01:57;1.27;;;1.13;;
2646;SDS011;1333;50.958;6.770;2024-02-26T02:04:26;0.90;;;0.80;;
2646;SDS011;1333;50.958;6.770;2024-02-26T02:06:52;1.00;;;0.80;;
2646;SDS011;1333;50.958;6.770;2024-02-26T02:09:18;7.33;;;1.10;;
2646;SDS011;1333;50.958;6.770;2024-02-26T02:11:44;3.10;;;0.97;;
2646;SDS011;1333;50.958;6.770;2024-02-26T02:14:10;2.00;;;0.80;;
2646;SDS011;1333;50.958;6.770;2024-02-26T02:16:35;1.40;;;0.97;;
2646;SDS011;1333;50.958;6.770;2024-02-26T02:19:01;1.67;;;1.10;;
2646;SDS011;1333;50.958;6.770;2024-02-26T02:21:26;1.10;;;0.83;;
2646;SDS011;1333;50.958;6.770;2024-02-26T02:23:52;0.80;;;0.60;;
2646;SDS011;1333;50.958;6.770;2024-02-26T02:26:17;3.13;;;0.90;;
2646;SDS011;1333;50.958;6.770;2024-02-26T02:28:44;2.70;;;1.20;;
2646;SDS011;1333;50.958;6.770;2024-02-26T02:31:10;1.10;;;0.70;;
2646;SDS011;1333;50.958;6.770;2024-02-26T02:33:36;0.90;;;0.70;;
2646;SDS011;1333;50.958;6.770;2024-02-26T02:36:02;0.80;;;0.60;;
2646;SDS011;1333;50.958;6.770;2024-02-26T02:38:28;1.27;;;1.17;;
2646;SDS011;1333;50.958;6.770;2024-02-26T02:40:55;1.33;;;0.90;;
2646;SDS011;1333;50.958;6.770;2024-02-26T02:43:20;3.70;;;0.93;;
2646;SDS011;1333;50.958;6.770;2024-02-26T02:45:46;1.27;;;0.83;;
2646;SDS011;1333;50.958;6.770;2024-02-26T02:48:11;2.40;;;0.77;;
2646;SDS011;1333;50.958;6.770;2024-02-26T02:50:37;3.73;;;1.27;;
2646;SDS011;1333;50.958;6.770;2024-02-26T02:53:03;0.80;;;0.70;;
2646;SDS011;1333;50.958;6.770;2024-02-26T02:55:29;0.90;;;0.80;;
2646;SDS011;1333;50.958;6.770;2024-02-26T02:57:54;2.93;;;0.80;;
2646;SDS011;1333;50.958;6.770;2024-02-26T03:00:20;1.30;;;0.90;;
2646;SDS011;1333;50.958;6.770;2024-02-26T03:02:47;1.27;;;1.10;;
2646;SDS011;1333;50.958;6.770;2024-02-26T03:05:13;1.03;;;0.80;;
2646;SDS011;1333;50.958;6.770;2024-02-26T03:07:39;1.10;;;1.00;;
2646;SDS011;1333;50.958;6.770;2024-02-26T03:10:05;1.33;;;1.00;;
2646;SDS011;1333;50.958;6.770;2024-02-26T03:12:30;1.00;;;0.80;;
2646;SDS011;1333;50.958;6.770;2024-02-26T03:14:56;0.80;;;0.70;;
2646;SDS011;1333;50.958;6.770;2024-02-26T03:17:22;1.40;;;1.20;;
2646;SDS011;1333;50.958;6.770;2024-02-26T03:19:49;0.90;;;0.80;;
2646;SDS011;1333;50.958;6.770;2024-02-26T03:22:18;1.27;;;0.90;;
2646;SDS011;1333;50.958;6.770;2024-02-26T03:24:43;1.17;;;0.80;;
2646;SDS011;1333;50.958;6.770;2024-02-26T03:27:09;1.17;;;1.07;;
2646;SDS011;1333;50.958;6.770;2024-02-26T03:29:35;0.87;;;0.80;;
2646;SDS011;1333;50.958;6.770;2024-02-26T03:32:02;2.70;;;1.20;;
2646;SDS011;1333;50.958;6.770;2024-02-26T03:34:27;8.97;;;1.53;;
2646;SDS011;1333;50.958;6.770;2024-02-26T03:36:53;1.10;;;1.00;;
2646;SDS011;1333;50.958;6.770;2024-02-26T03:39:19;0.90;;;0.77;;
2646;SDS011;1333;50.958;6.770;2024-02-26T03:41:44;1.00;;;0.87;;
2646;SDS011;1333;50.958;6.770;2024-02-26T03:44:10;1.87;;;1.20;;
2646;SDS011;1333;50.958;6.770;2024-02-26T03:46:35;5.13;;;3.77;;
2646;SDS011;1333;50.958;6.770;2024-02-26T03:49:01;1.10;;;0.90;;
2646;SDS011;1333;50.958;6.770;2024-02-26T03:51:26;2.57;;;1.00;;
2646;SDS011;1333;50.958;6.770;2024-02-26T03:53:56;0.80;;;0.60;;
2646;SDS011;1333;50.958;6.770;2024-02-26T03:56:22;1.47;;;0.73;;
2646;SDS011;1333;50.958;6.770;2024-02-26T03:58:48;2.63;;;1.00;;
2646;SDS011;1333;50.958;6.770;2024-02-26T04:01:13;2.33;;;1.97;;
2646;SDS011;1333;50.958;6.770;2024-02-26T04:03:39;1.67;;;0.90;;
2646;SDS011;1333;50.958;6.770;2024-02-26T04:06:04;1.53;;;0.90;;
2646;SDS011;1333;50.958;6.770;2024-02-26T04:08:33;18.07;;;9.90;;
2646;SDS011;1333;50.958;6.770;2024-02-26T04:10:58;3.40;;;1.73;;
2646;SDS011;1333;50.958;6.770;2024-02-26T04:13:24;4.03;;;1.40;;
2646;SDS011;1333;50.958;6.770;2024-02-26T04:15:50;1.53;;;0.83;;
2646;SDS011;1333;50.958;6.770;2024-02-26T04:18:15;1.70;;;1.30;;
2646;SDS011;1333;50.958;6.770;2024-02-26T04:20:41;2.37;;;0.97;;
2646;SDS011;1333;50.958;6.770;2024-02-26T04:23:09;1.10;;;0.97;;
2646;SDS011;1333;50.958;6.770;2024-02-26T04:25:35;1.17;;;0.93;;
2646;SDS011;1333;50.958;6.770;2024-02-26T04:28:00;3.77;;;0.80;;
2646;SDS011;1333;50.958;6.770;2024-02-26T04:30:26;0.80;;;0.70;;
2646;SDS011;1333;50.958;6.770;2024-02-26T04:32:51;1.87;;;0.80;;
2646;SDS011;1333;50.958;6.770;2024-02-26T04:35:17;1.80;;;0.93;;
2646;SDS011;1333;50.958;6.770;2024-02-26T04:37:42;2.50;;;1.37;;
2646;SDS011;1333;50.958;6.770;2024-02-26T04:40:08;2.03;;;0.80;;
2646;SDS011;1333;50.958;6.770;2024-02-26T04:42:34;2.30;;;1.20;;
2646;SDS011;1333;50.958;6.770;2024-02-26T04:44:59;2.23;;;1.10;;
2646;SDS011;1333;50.958;6.770;2024-02-26T04:47:25;0.80;;;0.70;;
2646;SDS011;1333;50.958;6.770;2024-02-26T04:49:50;1.23;;;0.70;;
2646;SDS011;1333;50.958;6.770;2024-02-26T04:52:16;3.70;;;1.07;;
2646;SDS011;1333;50.958;6.770;2024-02-26T04:54:43;1.10;;;0.80;;
2646;SDS011;1333;50.958;6.770;2024-02-26T04:57:09;3.40;;;1.00;;
2646;SDS011;1333;50.958;6.770;2024-02-26T04:59:34;1.20;;;1.07;;
2646;SDS011;1333;50.958;6.770;2024-02-26T05:02:00;1.37;;;1.13;;
2646;SDS011;1333;50.958;6.770;2024-02-26T05:04:25;1.00;;;0.77;;
2646;SDS011;1333;50.958;6.770;2024-02-26T05:06:51;1.73;;;1.13;;
2646;SDS011;1333;50.958;6.770;2024-02-26T05:09:16;1.03;;;0.93;;
2646;SDS011;1333;50.958;6.770;2024-02-26T05:11:43;9.07;;;6.27;;
2646;SDS011;1333;50.958;6.770;2024-02-26T05:14:09;8.70;;;5.83;;
2646;SDS011;1333;50.958;6.770;2024-02-26T05:16:35;2.60;;;2.13;;
2646;SDS011;1333;50.958;6.770;2024-02-26T05:19:00;1.40;;;0.90;;
2646;SDS011;1333;50.958;6.770;2024-02-26T05:21:26;1.50;;;1.40;;
2646;SDS011;1333;50.958;6.770;2024-02-26T05:23:51;1.00;;;0.90;;
2646;SDS011;1333;50.958;6.770;2024-02-26T05:26:20;1.50;;;1.17;;
2646;SDS011;1333;50.958;6.770;2024-02-26T05:28:46;2.47;;;0.90;;
2646;SDS011;1333;50.958;6.770;2024-02-26T05:31:12;2.80;;;1.17;;
2646;SDS011;1333;50.958;6.770;2024-02-26T05:33:38;1.03;;;0.93;;
2646;SDS011;1333;50.958;6.770;2024-02-26T05:36:04;1.53;;;0.93;;
2646;SDS011;1333;50.958;6.770;2024-02-26T05:38:30;1.20;;;1.10;;
2646;SDS011;1333;50.958;6.770;2024-02-26T05:40:56;1.97;;;0.97;;
2646;SDS011;1333;50.958;6.770;2024-02-26T05:43:25;2.20;;;1.57;;
2646;SDS011;1333;50.958;6.770;2024-02-26T05:45:51;1.80;;;1.20;;
2646;SDS011;1333;50.958;6.770;2024-02-26T05:48:17;1.23;;;1.10;;
2646;SDS011;1333;50.958;6.770;2024-02-26T05:50:44;1.90;;;0.93;;
2646;SDS011;1333;50.958;6.770;2024-02-26T05:53:10;1.67;;;1.10;;
2646;SDS011;1333;50.958;6.770;2024-02-26T05:55:35;1.10;;;0.80;;
2646;SDS011;1333;50.958;6.770;2024-02-26T05:58:02;0.93;;;0.80;;
2646;SDS011;1333;50.958;6.770;2024-02-26T06:00:28;1.70;;;1.20;;
2646;SDS011;1333;50.958;6.770;2024-02-26T06:02:53;1.50;;;1.00;;
2646;SDS011;1333;50.958;6.770;2024-02-26T06:05:19;1.30;;;1.10;;
2646;SDS011;1333;50.958;6.770;2024-02-26T06:07:44;1.47;;;1.00;;
2646;SDS011;1333;50.958;6.770;2024-02-26T06:10:10;2.23;;;1.10;;
2646;SDS011;1333;50.958;6.770;2024-02-26T06:12:35;17.33;;;8.33;;
2646;SDS011;1333;50.958;6.770;2024-02-26T06:15:01;2.30;;;1.90;;
2646;SDS011;1333;50.958;6.770;2024-02-26T06:17:27;1.53;;;1.43;;
2646;SDS011;1333;50.958;6.770;2024-02-26T06:19:53;1.30;;;1.00;;
2646;SDS011;1333;50.958;6.770;2024-02-26T06:22:19;2.70;;;1.43;;
2646;SDS011;1333;50.958;6.770;2024-02-26T06:24:44;1.83;;;1.23;;
2646;SDS011;1333;50.958;6.770;2024-02-26T06:27:10;1.80;;;1.33;;
2646;SDS011;1333;50.958;6.770;2024-02-26T06:29:35;1.53;;;1.43;;
2646;SDS011;1333;50.958;6.770;2024-02-26T06:32:01;1.40;;;0.90;;
2646;SDS011;1333;50.958;6.770;2024-02-26T06:34:26;1.30;;;1.13;;
2646;SDS011;1333;50.958;6.770;2024-02-26T06:36:52;3.43;;;1.40;;
2646;SDS011;1333;50.958;6.770;2024-02-26T06:39:17;2.20;;;1.13;;
2646;SDS011;1333;50.958;6.770;2024-02-26T06:41:43;2.10;;;1.67;;
2646;SDS011;1333;50.958;6.770;2024-02-26T06:44:11;1.63;;;1.30;;
2646;SDS011;1333;50.958;6.770;2024-02-26T06:46:37;1.83;;;1.40;;
2646;SDS011;1333;50.958;6.770;2024-02-26T06:49:03;1.40;;;1.20;;
2646;SDS011;1333;50.958;6.770;2024-02-26T06:51:29;1.20;;;1.00;;
2646;SDS011;1333;50.958;6.770;2024-02-26T06:53:54;1.90;;;1.63;;
2646;SDS011;1333;50.958;6.770;2024-02-26T06:56:20;1.37;;;1.03;;
2646;SDS011;1333;50.958;6.770;2024-02-26T06:58:45;2.80;;;1.10;;
2646;SDS011;1333;50.958;6.770;2024-02-26T07:01:11;1.50;;;1.20;;
2646;SDS011;1333;50.958;6.770;2024-02-26T07:03:37;1.20;;;1.10;;
2646;SDS011;1333;50.958;6.770;2024-02-26T07:06:05;1.67;;;1.20;;
2646;SDS011;1333;50.958;6.770;2024-02-26T07:08:31;3.00;;;1.43;;
2646;SDS011;1333;50.958;6.770;2024-02-26T07:10:57;1.40;;;0.80;;
2646;SDS011;1333;50.958;6.770;2024-02-26T07:13:23;1.33;;;0.93;;
2646;SDS011;1333;50.958;6.770;2024-02-26T07:15:48;1.47;;;1.20;;
2646;SDS011;1333;50.958;6.770;2024-02-26T07:18:14;2.07;;;1.70;;
2646;SDS011;1333;50.958;6.770;2024-02-26T07:20:39;1.70;;;1.60;;
2646;SDS011;1333;50.958;6.770;2024-02-26T07:23:05;1.83;;;1.23;;
2646;SDS011;1333;50.958;6.770;2024-02-26T07:25:31;1.40;;;1.30;;
2646;SDS011;1333;50.958;6.770;2024-02-26T07:27:57;2.90;;;1.30;;
2646;SDS011;1333;50.958;6.770;2024-02-26T07:30:22;1.53;;;1.00;;
2646;SDS011;1333;50.958;6.770;2024-02-26T07:32:49;1.57;;;1.30;;
2646;SDS011;1333;50.958;6.770;2024-02-26T07:35:15;1.70;;;1.37;;
2646;SDS011;1333;50.958;6.770;2024-02-26T07:37:41;1.47;;;1.37;;
2646;SDS011;1333;50.958;6.770;2024-02-26T07:40:07;3.43;;;1.23;;
2646;SDS011;1333;50.958;6.770;2024-02-26T07:42:33;3.93;;;1.40;;
2646;SDS011;1333;50.958;6.770;2024-02-26T07:44:58;1.90;;;1.30;;
2646;SDS011;1333;50.958;6.770;2024-02-26T07:47:24;1.60;;;1.27;;
2646;SDS011;1333;50.958;6.770;2024-02-26T07:49:50;1.97;;;1.23;;
2646;SDS011;1333;50.958;6.770;2024-02-26T07:52:15;1.63;;;1.33;;
2646;SDS011;1333;50.958;6.770;2024-02-26T07:54:41;2.17;;;1.50;;
2646;SDS011;1333;50.958;6.770;2024-02-26T07:57:06;1.63;;;1.53;;
2646;SDS011;1333;50.958;6.770;2024-02-26T07:59:32;1.77;;;1.10;;
2646;SDS011;1333;50.958;6.770;2024-02-26T08:01:58;3.83;;;1.40;;
2646;SDS011;1333;50.958;6.770;2024-02-26T08:04:23;2.07;;;1.27;;
2646;SDS011;1333;50.958;6.770;2024-02-26T08:06:50;1.50;;;1.20;;
2646;SDS011;1333;50.958;6.770;2024-02-26T08:09:16;1.30;;;1.00;;
2646;SDS011;1333;50.958;6.770;2024-02-26T08:11:41;1.67;;;1.17;;
2646;SDS011;1333;50.958;6.770;2024-02-26T08:14:07;1.97;;;1.40;;
2646;SDS011;1333;50.958;6.770;2024-02-26T08:16:32;5.00;;;1.23;;
2646;SDS011;1333;50.958;6.770;2024-02-26T08:18:58;1.73;;;1.00;;
2646;SDS011;1333;50.958;6.770;2024-02-26T08:21:23;1.70;;;1.47;;
2646;SDS011;1333;50.958;6.770;2024-02-26T08:23:49;1.97;;;1.50;;
2646;SDS011;1333;50.958;6.770;2024-02-26T08:26:14;1.60;;;1.40;;
2646;SDS011;1333;50.958;6.770;2024-02-26T08:28:40;5.20;;;1.23;;
2646;SDS011;1333;50.958;6.770;2024-02-26T08:31:05;2.40;;;1.20;;
2646;SDS011;1333;50.958;6.770;2024-02-26T08:33:31;1.63;;;1.53;;
2646;SDS011;1333;50.958;6.770;2024-02-26T08:35:58;2.07;;;1.30;;
2646;SDS011;1333;50.958;6.770;2024-02-26T08:38:24;1.83;;;1.13;;
2646;SDS011;1333;50.958;6.770;2024-02-26T08:40:50;2.40;;;1.57;;
2646;SDS011;1333;50.958;6.770;2024-02-26T08:43:15;1.97;;;1.10;;
2646;SDS011;1333;50.958;6.770;2024-02-26T08:45:41;2.13;;;1.30;;
2646;SDS011;1333;50.958;6.770;2024-02-26T08:48:06;1.47;;;1.37;;
2646;SDS011;1333;50.958;6.770;2024-02-26T08:50:32;3.37;;;1.30;;
2646;SDS011;1333;50.958;6.770;2024-02-26T08:52:58;1.47;;;1.37;;
2646;SDS011;1333;50.958;6.770;2024-02-26T08:55:26;2.30;;;1.20;;
2646;SDS011;1333;50.958;6.770;2024-02-26T08:57:51;1.57;;;1.47;;
2646;SDS011;1333;50.958;6.770;2024-02-26T09:00:17;2.63;;;1.83;;
2646;SDS011;1333;50.958;6.770;2024-02-26T09:02:45;1.60;;;1.10;;
2646;SDS011;1333;50.958;6.770;2024-02-26T09:05:11;1.60;;;1.20;;
2646;SDS011;1333;50.958;6.770;2024-02-26T09:07:37;3.43;;;1.60;;
2646;SDS011;1333;50.958;6.770;2024-02-26T09:10:03;1.83;;;1.33;;
2646;SDS011;1333;50.958;6.770;2024-02-26T09:12:29;1.47;;;1.30;;
2646;SDS011;1333;50.958;6.770;2024-02-26T09:14:55;2.80;;;1.93;;
2646;SDS011;1333;50.958;6.770;2024-02-26T09:17:22;2.67;;;1.30;;
2646;SDS011;1333;50.958;6.770;2024-02-26T09:19:48;2.23;;;1.60;;
2646;SDS011;1333;50.958;6.770;2024-02-26T09:22:13;1.63;;;1.47;;
2646;SDS011;1333;50.958;6.770;2024-02-26T09:24:39;3.60;;;1.83;;
2646;SDS011;1333;50.958;6.770;2024-02-26T09:27:05;2.70;;;1.73;;
2646;SDS011;1333;50.958;6.770;2024-02-26T09:29:30;2.07;;;1.30;;
2646;SDS011;1333;50.958;6.770;2024-02-26T09:31:56;1.90;;;1.50;;
2646;SDS011;1333;50.958;6.770;2024-02-26T09:34:21;2.37;;;1.47;;
2646;SDS011;1333;50.958;6.770;2024-02-26T09:36:47;1.93;;;1.77;;
2646;SDS011;1333;50.958;6.770;2024-02-26T09:39:12;2.00;;;1.80;;
2646;SDS011;1333;50.958;6.770;2024-02-26T09:41:39;2.37;;;2.00;;
2646;SDS011;1333;50.958;6.770;2024-02-26T09:44:05;1.93;;;1.63;;
2646;SDS011;1333;50.958;6.770;2024-02-26T09:46:31;2.50;;;1.87;;
2646;SDS011;1333;50.958;6.770;2024-02-26T09:48:57;1.90;;;1.37;;
2646;SDS011;1333;50.958;6.770;2024-02-26T09:51:23;2.67;;;2.03;;
2646;SDS011;1333;50.958;6.770;2024-02-26T09:53:52;3.90;;;1.67;;
2646;SDS011;1333;50.958;6.770;2024-02-26T09:56:18;2.00;;;1.80;;
2646;SDS011;1333;50.958;6.770;2024-02-26T09:58:44;2.03;;;1.83;;
2646;SDS011;1333;50.958;6.770;2024-02-26T10:01:15;3.17;;;1.63;;
2646;SDS011;1333;50.958;6.770;2024-02-26T10:03:43;1.87;;;1.57;;
2646;SDS011;1333;50.958;6.770;2024-02-26T10:06:10;1.53;;;1.43;;
2646;SDS011;1333;50.958;6.770;2024-02-26T10:08:36;1.60;;;1.50;;
2646;SDS011;1333;50.958;6.770;2024-02-26T10:11:03;2.63;;;1.50;;
2646;SDS011;1333;50.958;6.770;2024-02-26T10:13:30;3.93;;;1.77;;
2646;SDS011;1333;50.958;6.770;2024-02-26T10:15:55;2.23;;;1.70;;
2646;SDS011;1333;50.958;6.770;2024-02-26T10:18:22;2.27;;;1.97;;
2646;SDS011;1333;50.958;6.770;2024-02-26T10:21:01;2.47;;;1.80;;
2646;SDS011;1333;50.958;6.770;2024-02-26T10:23:27;1.57;;;1.47;;
2646;SDS011;1333;50.958;6.770;2024-02-26T10:25:55;5.97;;;1.83;;
2646;SDS011;1333;50.958;6.770;2024-02-26T10:28:22;2.50;;;1.97;;
2646;SDS011;1333;50.958;6.770;2024-02-26T10:30:48;3.40;;;2.10;;
2646;SDS011;1333;50.958;6.770;2024-02-26T10:33:15;5.17;;;2.63;;
2646;SDS011;1333;50.958;6.770;2024-02-26T10:35:47;3.77;;;2.10;;
2646;SDS011;1333;50.958;6.770;2024-02-26T10:38:13;2.60;;;1.83;;
2646;SDS011;1333;50.958;6.770;2024-02-26T10:40:41;3.10;;;2.00;;
2646;SDS011;1333;50.958;6.770;2024-02-26T10:43:07;2.30;;;2.10;;
2646;SDS011;1333;50.958;6.770;2024-02-26T10:45:33;2.50;;;2.17;;
2646;SDS011;1333;50.958;6.770;2024-02-26T10:47:58;2.40;;;1.50;;
2646;SDS011;1333;50.958;6.770;2024-02-26T10:50:25;1.90;;;1.70;;
2646;SDS011;1333;50.958;6.770;2024-02-26T10:52:51;2.90;;;1.63;;
2646;SDS011;1333;50.958;6.770;2024-02-26T10:55:17;1.97;;;1.73;;
2646;SDS011;1333;50.958;6.770;2024-02-26T10:57:45;3.00;;;1.47;;
2646;SDS011;1333;50.958;6.770;2024-02-26T11:00:15;1.40;;;1.03;;
2646;SDS011;1333;50.958;6.770;2024-02-26T11:02:41;2.63;;;1.83;;
2646;SDS011;1333;50.958;6.770;2024-02-26T11:05:09;3.27;;;1.80;;
2646;SDS011;1333;50.958;6.770;2024-02-26T11:07:37;3.20;;;1.40;;
2646;SDS011;1333;50.958;6.770;2024-02-26T11:10:03;1.37;;;1.27;;
2646;SDS011;1333;50.958;6.770;2024-02-26T11:12:31;1.70;;;1.37;;
2646;SDS011;1333;50.958;6.770;2024-02-26T11:14:59;1.63;;;1.53;;
2646;SDS011;1333;50.958;6.770;2024-02-26T11:17:27;2.60;;;1.57;;
2646;SDS011;1333;50.958;6.770;2024-02-26T11:19:56;3.20;;;1.70;;
2646;SDS011;1333;50.958;6.770;2024-02-26T11:22:24;2.07;;;1.70;;
2646;SDS011;1333;50.958;6.770;2024-02-26T11:24:53;1.30;;;1.10;;
2646;SDS011;1333;50.958;6.770;2024-02-26T11:27:34;1.90;;;1.70;;
2646;SDS011;1333;50.958;6.770;2024-02-26T11:30:04;2.67;;;1.87;;
2646;SDS011;1333;50.958;6.770;2024-02-26T11:32:34;2.13;;;1.60;;
2646;SDS011;1333;50.958;6.770;2024-02-26T11:35:00;1.90;;;1.70;;
2646;SDS011;1333;50.958;6.770;2024-02-26T11:37:26;2.43;;;1.30;;
2646;SDS011;1333;50.958;6.770;2024-02-26T11:39:51;2.17;;;1.40;;
2646;SDS011;1333;50.958;6.770;2024-02-26T11:42:18;2.63;;;1.90;;
2646;SDS011;1333;50.958;6.770;2024-02-26T11:44:49;2.70;;;2.20;;
2646;SDS011;1333;50.958;6.770;2024-02-26T11:47:19;3.43;;;1.67;;
2646;SDS011;1333;50.958;6.770;2024-02-26T11:49:47;1.77;;;1.50;;
2646;SDS011;1333;50.958;6.770;2024-02-26T11:52:13;2.37;;;1.63;;
2646;SDS011;1333;50.958;6.770;2024-02-26T11:59:53;1.83;;;1.37;;
2646;SDS011;1333;50.958;6.770;2024-02-26T12:05:11;2.77;;;1.87;;
2646;SDS011;1333;50.958;6.770;2024-02-26T12:07:48;2.20;;;1.90;;
2646;SDS011;1333;50.958;6.770;2024-02-26T12:12:47;1.90;;;1.50;;
2646;SDS011;1333;50.958;6.770;2024-02-26T12:15:12;2.20;;;1.50;;
2646;SDS011;1333;50.958;6.770;2024-02-26T12:17:40;4.87;;;1.27;;
2646;SDS011;1333;50.958;6.770;2024-02-26T12:20:10;1.70;;;1.57;;
2646;SDS011;1333;50.958;6.770;2024-02-26T12:22:36;1.90;;;1.57;;
2646;SDS011;1333;50.958;6.770;2024-02-26T12:25:04;2.80;;;1.70;;
2646;SDS011;1333;50.958;6.770;2024-02-26T12:27:30;1.90;;;1.47;;
2646;SDS011;1333;50.958;6.770;2024-02-26T12:29:56;2.40;;;1.67;;
2646;SDS011;1333;50.958;6.770;2024-02-26T12:32:21;2.13;;;1.60;;
2646;SDS011;1333;50.958;6.770;2024-02-26T12:34:48;2.60;;;1.83;;
2646;SDS011;1333;50.958;6.770;2024-02-26T12:37:15;1.93;;;1.77;;
2646;SDS011;1333;50.958;6.770;2024-02-26T12:39:41;2.47;;;1.97;;
2646;SDS011;1333;50.958;6.770;2024-02-26T12:42:06;2.30;;;1.80;;
2646;SDS011;1333;50.958;6.770;2024-02-26T12:44:32;2.37;;;1.63;;
2646;SDS011;1333;50.958;6.770;2024-02-26T12:47:01;3.37;;;2.00;;
2646;SDS011;1333;50.958;6.770;2024-02-26T12:49:30;2.27;;;2.07;;
2646;SDS011;1333;50.958;6.770;2024-02-26T12:51:56;2.90;;;2.10;;
2646;SDS011;1333;50.958;6.770;2024-02-26T12:54:27;2.17;;;1.97;;
2646;SDS011;1333;50.958;6.770;2024-02-26T12:56:53;4.23;;;2.13;;
2646;SDS011;1333;50.958;6.770;2024-02-26T12:59:19;2.40;;;2.00;;
2646;SDS011;1333;50.958;6.770;2024-02-26T13:01:45;2.30;;;1.97;;
2646;SDS011;1333;50.958;6.770;2024-02-26T13:04:11;2.60;;;2.40;;
2646;SDS011;1333;50.958;6.770;2024-02-26T13:06:37;3.83;;;2.63;;
2646;SDS011;1333;50.958;6.770;2024-02-26T13:09:02;5.80;;;2.33;;
2646;SDS011;1333;50.958;6.770;2024-02-26T13:11:29;3.60;;;2.70;;
2646;SDS011;1333;50.958;6.770;2024-02-26T13:13:56;5.17;;;3.10;;
2646;SDS011;1333;50.958;6.770;2024-02-26T13:16:23;2.60;;;2.20;;
2646;SDS011;1333;50.958;6.770;2024-02-26T13:18:50;4.00;;;2.50;;
2646;SDS011;1333;50.958;6.770;2024-02-26T13:21:16;5.83;;;3.30;;
2646;SDS011;1333;50.958;6.770;2024-02-26T13:23:43;3.40;;;2.83;;
2646;SDS011;1333;50.958;6.770;2024-02-26T13:26:14;2.70;;;2.13;;
2646;SDS011;1333;50.958;6.770;2024-02-26T13:28:39;6.50;;;2.87;;
2646;SDS011;1333;50.958;6.770;2024-02-26T13:31:05;4.10;;;3.23;;
2646;SDS011;1333;50.958;6.770;2024-02-26T13:33:32;3.57;;;2.63;;
2646;SDS011;1333;50.958;6.770;2024-02-26T13:35:59;2.50;;;2.20;;
2646;SDS011;1333;50.958;6.770;2024-02-26T13:38:25;1.90;;;1.70;;
2646;SDS011;1333;50.958;6.770;2024-02-26T13:40:51;6.80;;;2.87;;
2646;SDS011;1333;50.958;6.770;2024-02-26T13:43:17;3.17;;;2.90;;
2646;SDS011;1333;50.958;6.770;2024-02-26T13:45:44;3.17;;;2.57;;
2646;SDS011;1333;50.958;6.770;2024-02-26T13:48:10;2.77;;;2.57;;
2646;SDS011;1333;50.958;6.770;2024-02-26T13:50:36;7.77;;;2.33;;
2646;SDS011;1333;50.958;6.770;2024-02-26T13:53:02;2.80;;;2.17;;
2646;SDS011;1333;50.958;6.770;2024-02-26T13:55:28;2.87;;;2.67;;
2646;SDS011;1333;50.958;6.770;2024-02-26T13:57:56;2.97;;;2.77;;
2646;SDS011;1333;50.958;6.770;2024-02-26T14:00:23;2.90;;;2.53;;
2646;SDS011;1333;50.958;6.770;2024-02-26T14:02:49;3.20;;;2.80;;
2646;SDS011;1333;50.958;6.770;2024-02-26T14:05:15;2.77;;;2.53;;
2646;SDS011;1333;50.958;6.770;2024-02-26T14:07:41;3.63;;;2.67;;
2646;SDS011;1333;50.958;6.770;2024-02-26T14:10:07;4.90;;;2.90;;
2646;SDS011;1333;50.958;6.770;2024-02-26T14:12:36;4.63;;;2.80;;
2646;SDS011;1333;50.958;6.770;2024-02-26T14:15:02;7.70;;;2.83;;
2646;SDS011;1333;50.958;6.770;2024-02-26T14:17:30;6.50;;;3.00;;
2646;SDS011;1333;50.958;6.770;2024-02-26T14:19:55;4.13;;;2.60;;
2646;SDS011;1333;50.958;6.770;2024-02-26T14:22:21;4.63;;;3.50;;
2646;SDS011;1333;50.958;6.770;2024-02-26T14:24:47;3.30;;;2.73;;
2646;SDS011;1333;50.958;6.770;2024-02-26T14:27:13;4.07;;;3.57;;
2646;SDS011;1333;50.958;6.770;2024-02-26T14:29:42;6.53;;;3.10;;
2646;SDS011;1333;50.958;6.770;2024-02-26T14:32:09;5.20;;;3.17;;
2646;SDS011;1333;50.958;6.770;2024-02-26T14:34:35;3.70;;;3.30;;
2646;SDS011;1333;50.958;6.770;2024-02-26T14:37:00;5.83;;;3.80;;
2646;SDS011;1333;50.958;6.770;2024-02-26T14:39:26;5.90;;;4.13;;
2646;SDS011;1333;50.958;6.770;2024-02-26T14:41:52;4.27;;;3.87;;
2646;SDS011;1333;50.958;6.770;2024-02-26T14:44:18;10.53;;;5.17;;
2646;SDS011;1333;50.958;6.770;2024-02-26T14:46:43;7.93;;;5.27;;
2646;SDS011;1333;50.958;6.770;2024-02-26T14:49:09;6.90;;;5.10;;
2646;SDS011;1333;50.958;6.770;2024-02-26T14:51:35;8.30;;;5.63;;
2646;SDS011;1333;50.958;6.770;2024-02-26T14:54:01;9.23;;;6.50;;
2646;SDS011;1333;50.958;6.770;2024-02-26T14:56:27;7.40;;;5.40;;
2646;SDS011;1333;50.958;6.770;2024-02-26T14:58:53;9.60;;;7.10;;
2646;SDS011;1333;50.958;6.770;2024-02-26T15:01:18;10.70;;;6.23;;
2646;SDS011;1333;50.958;6.770;2024-02-26T15:03:44;8.53;;;6.80;;
2646;SDS011;1333;50.958;6.770;2024-02-26T15:06:09;14.13;;;6.90;;
2646;SDS011;1333;50.958;6.770;2024-02-26T15:08:35;9.27;;;5.57;;
2646;SDS011;1333;50.958;6.770;2024-02-26T15:11:01;7.20;;;5.70;;
2646;SDS011;1333;50.958;6.770;2024-02-26T15:13:26;10.10;;;6.87;;
2646;SDS011;1333;50.958;6.770;2024-02-26T15:15:52;8.67;;;5.80;;
2646;SDS011;1333;50.958;6.770;2024-02-26T15:18:18;6.40;;;5.70;;